Terminal Aerodrome Forecast
Issued by NWS Melbourne, FL

Home | Current Version | Previous Version | Text Only | Print | Product List | Glossary On
Versions: 1 2 3 4 5 6 7 8 9 10 11 12 13 14 15
223
FTUS42 KMLB 172333
TAFVRB
TAF
KVRB 172333Z 1800/1824 13005KT P6SM FEW035 SCT250
     FM180600 VRB02KT 4SM BR SCT004
      TEMPO 1809/1813 1SM BR BKN004
     FM181500 11006KT P6SM SCT010 SCT025 SCT250
     FM181900 10009KT P6SM SCT025 SCT040 SCT250=

USA.gov is the U.S. government's official web portal to all federal, state and local government web resources and services.